sensor_id;sensor_type;location;lat;lon;timestamp;pressure;altitude;pressure_sealevel;temperature;humidity
52319;BME280;38258;51.148;14.068;2023-04-16T00:00:24;98089.09;;;2.67;100.00
52319;BME280;38258;51.148;14.068;2023-04-16T00:02:54;98089.09;;;2.62;100.00
52319;BME280;38258;51.148;14.068;2023-04-16T00:05:21;97967.00;;;1.79;100.00
52319;BME280;38258;51.148;14.068;2023-04-16T00:07:48;98007.41;;;2.05;100.00
52319;BME280;38258;51.148;14.068;2023-04-16T00:10:16;98091.69;;;2.50;100.00
52319;BME280;38258;51.148;14.068;2023-04-16T00:12:43;98032.34;;;2.09;100.00
52319;BME280;38258;51.148;14.068;2023-04-16T00:15:11;98080.50;;;2.29;100.00
52319;BME280;38258;51.148;14.068;2023-04-16T00:17:38;98096.84;;;2.42;100.00
52319;BME280;38258;51.148;14.068;2023-04-16T00:20:05;98103.75;;;2.35;100.00
52319;BME280;38258;51.148;14.068;2023-04-16T00:22:35;98082.22;;;2.19;100.00
52319;BME280;38258;51.148;14.068;2023-04-16T00:25:01;98119.22;;;2.21;100.00
52319;BME280;38258;51.148;14.068;2023-04-16T00:27:28;97995.34;;;1.53;100.00
52319;BME280;38258;51.148;14.068;2023-04-16T00:29:55;98036.63;;;1.82;100.00
52319;BME280;38258;51.148;14.068;2023-04-16T00:32:23;98070.16;;;1.93;100.00
52319;BME280;38258;51.148;14.068;2023-04-16T00:34:50;98040.06;;;1.67;100.00
52319;BME280;38258;51.148;14.068;2023-04-16T00:37:17;97954.06;;;1.30;100.00
52319;BME280;38258;51.148;14.068;2023-04-16T00:39:44;98043.50;;;1.69;100.00
52319;BME280;38258;51.148;14.068;2023-04-16T00:42:11;98035.75;;;1.77;100.00
52319;BME280;38258;51.148;14.068;2023-04-16T00:44:38;97999.63;;;1.38;100.00
52319;BME280;38258;51.148;14.068;2023-04-16T00:47:05;98011.66;;;1.53;100.00
52319;BME280;38258;51.148;14.068;2023-04-16T00:49:34;97941.97;;;1.02;100.00
52319;BME280;38258;51.148;14.068;2023-04-16T00:52:01;97994.44;;;1.32;100.00
52319;BME280;38258;51.148;14.068;2023-04-16T00:54:29;98036.59;;;1.64;100.00
52319;BME280;38258;51.148;14.068;2023-04-16T00:56:57;97962.66;;;1.27;100.00
52319;BME280;38258;51.148;14.068;2023-04-16T00:59:24;98039.16;;;1.53;100.00
52319;BME280;38258;51.148;14.068;2023-04-16T01:01:53;98036.56;;;1.54;100.00
52319;BME280;38258;51.148;14.068;2023-04-16T01:04:20;98049.47;;;1.53;100.00
52319;BME280;38258;51.148;14.068;2023-04-16T01:06:48;97969.44;;;1.03;100.00
52319;BME280;38258;51.148;14.068;2023-04-16T01:09:15;98102.81;;;1.88;100.00
52319;BME280;38258;51.148;14.068;2023-04-16T01:11:42;97981.47;;;0.98;100.00
52319;BME280;38258;51.148;14.068;2023-04-16T01:14:09;98095.03;;;1.60;100.00
52319;BME280;38258;51.148;14.068;2023-04-16T01:16:36;97926.44;;;0.74;100.00
52319;BME280;38258;51.148;14.068;2023-04-16T01:19:05;97990.94;;;1.07;100.00
52319;BME280;38258;51.148;14.068;2023-04-16T01:21:33;97988.34;;;1.05;100.00
52319;BME280;38258;51.148;14.068;2023-04-16T01:24:01;97996.09;;;1.11;100.00
52319;BME280;38258;51.148;14.068;2023-04-16T01:26:28;98077.84;;;1.61;100.00
52319;BME280;38258;51.148;14.068;2023-04-16T01:28:57;98014.19;;;1.32;100.00
52319;BME280;38258;51.148;14.068;2023-04-16T01:31:25;98063.19;;;1.39;100.00
52319;BME280;38258;51.148;14.068;2023-04-16T01:34:01;98055.38;;;1.25;100.00
52319;BME280;38258;51.148;14.068;2023-04-16T01:36:28;98123.38;;;1.51;100.00
52319;BME280;38258;51.148;14.068;2023-04-16T01:38:56;97924.47;;;0.20;100.00
52319;BME280;38258;51.148;14.068;2023-04-16T01:41:23;98110.47;;;1.46;100.00
52319;BME280;38258;51.148;14.068;2023-04-16T01:43:50;98034.66;;;0.94;100.00
52319;BME280;38258;51.148;14.068;2023-04-16T01:46:19;98051.06;;;1.13;100.00
52319;BME280;38258;51.148;14.068;2023-04-16T01:48:47;98042.41;;;1.05;100.00
52319;BME280;38258;51.148;14.068;2023-04-16T01:51:13;97937.47;;;0.48;100.00
52319;BME280;38258;51.148;14.068;2023-04-16T01:53:40;97986.50;;;0.70;100.00
52319;BME280;38258;51.148;14.068;2023-04-16T01:56:09;98113.00;;;1.37;100.00
52319;BME280;38258;51.148;14.068;2023-04-16T01:58:35;97999.28;;;0.51;100.00
52319;BME280;38258;51.148;14.068;2023-04-16T02:01:03;97959.69;;;0.31;100.00
52319;BME280;38258;51.148;14.068;2023-04-16T02:03:30;98033.66;;;0.67;100.00
52319;BME280;38258;51.148;14.068;2023-04-16T02:05:57;98025.91;;;0.58;100.00
52319;BME280;38258;51.148;14.068;2023-04-16T02:08:27;98046.44;;;0.55;100.00
52319;BME280;38258;51.148;14.068;2023-04-16T02:10:55;97979.44;;;0.33;100.00
52319;BME280;38258;51.148;14.068;2023-04-16T02:13:25;98113.69;;;1.02;100.00
52319;BME280;38258;51.148;14.068;2023-04-16T02:15:53;98013.75;;;0.37;100.00
52319;BME280;38258;51.148;14.068;2023-04-16T02:18:34;98126.47;;;0.91;100.00
52319;BME280;38258;51.148;14.068;2023-04-16T02:21:01;98067.09;;;0.58;100.00
52319;BME280;38258;51.148;14.068;2023-04-16T02:23:30;97936.06;;;-0.39;100.00
52319;BME280;38258;51.148;14.068;2023-04-16T02:25:58;98039.31;;;0.13;100.00
52319;BME280;38258;51.148;14.068;2023-04-16T02:28:27;98052.16;;;0.09;100.00
52319;BME280;38258;51.148;14.068;2023-04-16T02:30:53;98129.72;;;0.60;100.00
52319;BME280;38258;51.148;14.068;2023-04-16T02:33:20;98096.09;;;0.38;100.00
52319;BME280;38258;51.148;14.068;2023-04-16T02:35:58;98135.69;;;0.56;100.00
52319;BME280;38258;51.148;14.068;2023-04-16T02:38:25;98025.44;;;-0.04;100.00
52319;BME280;38258;51.148;14.068;2023-04-16T02:40:51;98085.75;;;0.32;100.00
52319;BME280;38258;51.148;14.068;2023-04-16T02:43:18;98148.69;;;0.76;100.00
52319;BME280;38258;51.148;14.068;2023-04-16T02:45:46;97993.53;;;-0.30;100.00
52319;BME280;38258;51.148;14.068;2023-04-16T02:48:13;97956.56;;;-0.46;100.00
52319;BME280;38258;51.148;14.068;2023-04-16T02:50:39;98092.63;;;0.35;100.00
52319;BME280;38258;51.148;14.068;2023-04-16T02:53:06;98034.00;;;-0.08;100.00
52319;BME280;38258;51.148;14.068;2023-04-16T02:55:34;98021.84;;;-0.26;100.00
52319;BME280;38258;51.148;14.068;2023-04-16T02:58:01;97990.00;;;-0.41;100.00
52319;BME280;38258;51.148;14.068;2023-04-16T03:00:28;97975.91;;;-0.82;100.00
52319;BME280;38258;51.148;14.068;2023-04-16T03:02:57;98011.31;;;-0.53;100.00
52319;BME280;38258;51.148;14.068;2023-04-16T03:05:24;98152.81;;;0.51;100.00
52319;BME280;38258;51.148;14.068;2023-04-16T03:07:50;98153.00;;;0.76;100.00
52319;BME280;38258;51.148;14.068;2023-04-16T03:10:20;98102.16;;;0.48;100.00
52319;BME280;38258;51.148;14.068;2023-04-16T03:12:48;98163.22;;;0.65;100.00
52319;BME280;38258;51.148;14.068;2023-04-16T03:15:15;98076.81;;;-0.12;100.00
52319;BME280;38258;51.148;14.068;2023-04-16T03:17:42;98016.34;;;-0.64;100.00
52319;BME280;38258;51.148;14.068;2023-04-16T03:20:11;98068.06;;;-0.30;100.00
52319;BME280;38258;51.148;14.068;2023-04-16T03:22:38;98163.03;;;0.40;100.00
52319;BME280;38258;51.148;14.068;2023-04-16T03:25:06;97980.16;;;-0.86;100.00
52319;BME280;38258;51.148;14.068;2023-04-16T03:27:35;98058.53;;;-0.41;100.00
52319;BME280;38258;51.148;14.068;2023-04-16T03:30:07;98075.84;;;-0.23;100.00
52319;BME280;38258;51.148;14.068;2023-04-16T03:32:34;98177.66;;;0.47;100.00
52319;BME280;38258;51.148;14.068;2023-04-16T03:35:04;98068.34;;;0.02;100.00
52319;BME280;38258;51.148;14.068;2023-04-16T03:37:32;98034.56;;;-0.39;100.00
52319;BME280;38258;51.148;14.068;2023-04-16T03:39:59;98199.00;;;0.38;100.00
52319;BME280;38258;51.148;14.068;2023-04-16T03:42:26;98110.88;;;-0.33;100.00
52319;BME280;38258;51.148;14.068;2023-04-16T03:44:52;98083.28;;;-0.50;100.00
52319;BME280;38258;51.148;14.068;2023-04-16T03:47:20;98012.63;;;-0.89;100.00
52319;BME280;38258;51.148;14.068;2023-04-16T03:49:49;98139.56;;;0.07;100.00
52319;BME280;38258;51.148;14.068;2023-04-16T03:52:16;98098.75;;;-0.44;100.00
52319;BME280;38258;51.148;14.068;2023-04-16T03:54:45;98074.50;;;-0.69;100.00
52319;BME280;38258;51.148;14.068;2023-04-16T03:57:25;98193.50;;;0.03;100.00
52319;BME280;38258;51.148;14.068;2023-04-16T03:59:55;98088.16;;;-0.73;100.00
52319;BME280;38258;51.148;14.068;2023-04-16T04:02:25;98215.72;;;-0.04;100.00
52319;BME280;38258;51.148;14.068;2023-04-16T04:04:52;98131.28;;;-0.47;100.00
52319;BME280;38258;51.148;14.068;2023-04-16T04:07:18;98097.66;;;-0.67;100.00
52319;BME280;38258;51.148;14.068;2023-04-16T04:09:47;98055.31;;;-0.99;100.00
52319;BME280;38258;51.148;14.068;2023-04-16T04:12:14;98169.91;;;-0.38;100.00
52319;BME280;38258;51.148;14.068;2023-04-16T04:14:42;98208.84;;;-0.08;100.00
52319;BME280;38258;51.148;14.068;2023-04-16T04:17:09;98055.25;;;-1.04;100.00
52319;BME280;38258;51.148;14.068;2023-04-16T04:19:36;98022.63;;;-1.14;100.00
52319;BME280;38258;51.148;14.068;2023-04-16T04:22:03;98233.97;;;0.18;100.00
52319;BME280;38258;51.148;14.068;2023-04-16T04:24:29;98027.88;;;-1.03;100.00
52319;BME280;38258;51.148;14.068;2023-04-16T04:27:00;98226.97;;;0.04;100.00
52319;BME280;38258;51.148;14.068;2023-04-16T04:29:27;98131.28;;;-0.47;100.00
52319;BME280;38258;51.148;14.068;2023-04-16T04:31:54;98156.44;;;-0.17;100.00
52319;BME280;38258;51.148;14.068;2023-04-16T04:34:22;98114.13;;;-0.50;100.00
52319;BME280;38258;51.148;14.068;2023-04-16T04:36:48;98186.72;;;0.09;100.00
52319;BME280;38258;51.148;14.068;2023-04-16T04:39:15;98100.75;;;-0.15;100.00
52319;BME280;38258;51.148;14.068;2023-04-16T04:41:47;98220.69;;;0.62;100.00
52319;BME280;38258;51.148;14.068;2023-04-16T04:44:15;98184.59;;;0.54;100.00
52319;BME280;38258;51.148;14.068;2023-04-16T04:46:42;98124.34;;;0.31;100.00
52319;BME280;38258;51.148;14.068;2023-04-16T04:49:08;98046.94;;;0.03;100.00
52319;BME280;38258;51.148;14.068;2023-04-16T04:51:35;98151.31;;;0.81;100.00
52319;BME280;38258;51.148;14.068;2023-04-16T04:54:03;98238.44;;;1.39;100.00
52319;BME280;38258;51.148;14.068;2023-04-16T04:56:32;98072.22;;;0.60;100.00
52319;BME280;38258;51.148;14.068;2023-04-16T04:58:59;98066.28;;;0.68;100.00
52319;BME280;38258;51.148;14.068;2023-04-16T05:01:27;98224.06;;;1.87;100.00
52319;BME280;38258;51.148;14.068;2023-04-16T05:03:54;98170.66;;;1.64;100.00
52319;BME280;38258;51.148;14.068;2023-04-16T05:06:37;98178.44;;;1.72;100.00
52319;BME280;38258;51.148;14.068;2023-04-16T05:09:04;98237.09;;;2.22;100.00
52319;BME280;38258;51.148;14.068;2023-04-16T05:11:32;98160.44;;;1.87;100.00
52319;BME280;38258;51.148;14.068;2023-04-16T05:13:59;98113.09;;;1.62;100.00
52319;BME280;38258;51.148;14.068;2023-04-16T05:16:30;98138.94;;;1.93;100.00
52319;BME280;38258;51.148;14.068;2023-04-16T05:18:56;98129.50;;;2.06;100.00
52319;BME280;38258;51.148;14.068;2023-04-16T05:21:23;98253.53;;;3.11;100.00
52319;BME280;38258;51.148;14.068;2023-04-16T05:23:50;98242.31;;;3.25;100.00
52319;BME280;38258;51.148;14.068;2023-04-16T05:26:17;98104.59;;;2.54;100.00
52319;BME280;38258;51.148;14.068;2023-04-16T05:28:46;98104.56;;;2.05;100.00
52319;BME280;38258;51.148;14.068;2023-04-16T05:31:13;98194.97;;;3.03;100.00
52319;BME280;38258;51.148;14.068;2023-04-16T05:33:41;98162.22;;;3.05;100.00
52319;BME280;38258;51.148;14.068;2023-04-16T05:36:08;98207.81;;;3.43;100.00
52319;BME280;38258;51.148;14.068;2023-04-16T05:38:36;98237.09;;;3.61;100.00
52319;BME280;38258;51.148;14.068;2023-04-16T05:41:03;98167.25;;;3.61;100.00
52319;BME280;38258;51.148;14.068;2023-04-16T05:43:30;98268.72;;;4.34;100.00
52319;BME280;38258;51.148;14.068;2023-04-16T05:45:59;98249.81;;;4.14;100.00
52319;BME280;38258;51.148;14.068;2023-04-16T05:48:26;98217.91;;;4.07;100.00
52319;BME280;38258;51.148;14.068;2023-04-16T05:50:54;98130.06;;;3.80;100.00
52319;BME280;38258;51.148;14.068;2023-04-16T05:53:23;98108.59;;;3.61;100.00
52319;BME280;38258;51.148;14.068;2023-04-16T05:55:49;98151.50;;;4.01;100.00
52319;BME280;38258;51.148;14.068;2023-04-16T05:58:17;98244.41;;;4.56;100.00
52319;BME280;38258;51.148;14.068;2023-04-16T06:00:44;98277.03;;;4.83;100.00
52319;BME280;38258;51.148;14.068;2023-04-16T06:03:11;98294.22;;;5.01;100.00
52319;BME280;38258;51.148;14.068;2023-04-16T06:05:37;98290.75;;;5.04;100.00
52319;BME280;38258;51.148;14.068;2023-04-16T06:08:08;98205.66;;;4.40;100.00
52319;BME280;38258;51.148;14.068;2023-04-16T06:10:38;98295.63;;;5.40;100.00
52319;BME280;38258;51.148;14.068;2023-04-16T06:13:04;98187.41;;;4.57;100.00
52319;BME280;38258;51.148;14.068;2023-04-16T06:15:31;98278.69;;;4.97;100.00
52319;BME280;38258;51.148;14.068;2023-04-16T06:17:58;98297.53;;;5.20;100.00
52319;BME280;38258;51.148;14.068;2023-04-16T06:20:25;98166.00;;;4.32;100.00
52319;BME280;38258;51.148;14.068;2023-04-16T06:22:53;98152.03;;;4.53;100.00
52319;BME280;38258;51.148;14.068;2023-04-16T06:25:22;98161.47;;;4.62;100.00
52319;BME280;38258;51.148;14.068;2023-04-16T06:27:49;98156.22;;;4.70;100.00
52319;BME280;38258;51.148;14.068;2023-04-16T06:30:15;98186.47;;;4.66;100.00
52319;BME280;38258;51.148;14.068;2023-04-16T06:32:42;98236.09;;;5.27;100.00
52319;BME280;38258;51.148;14.068;2023-04-16T06:35:11;98204.56;;;4.77;100.00
52319;BME280;38258;51.148;14.068;2023-04-16T06:37:37;98274.84;;;5.41;100.00
52319;BME280;38258;51.148;14.068;2023-04-16T06:40:05;98208.72;;;4.93;100.00
52319;BME280;38258;51.148;14.068;2023-04-16T06:42:33;98243.16;;;5.06;100.00
52319;BME280;38258;51.148;14.068;2023-04-16T06:45:00;98262.75;;;5.40;100.00
52319;BME280;38258;51.148;14.068;2023-04-16T06:47:27;98144.31;;;4.50;100.00
52319;BME280;38258;51.148;14.068;2023-04-16T06:49:55;98263.44;;;5.59;100.00
52319;BME280;38258;51.148;14.068;2023-04-16T06:52:21;98310.94;;;5.66;100.00
52319;BME280;38258;51.148;14.068;2023-04-16T06:54:48;98195.88;;;4.83;100.00
52319;BME280;38258;51.148;14.068;2023-04-16T06:57:15;98322.72;;;6.04;100.00
52319;BME280;38258;51.148;14.068;2023-04-16T06:59:43;98220.16;;;5.61;100.00
52319;BME280;38258;51.148;14.068;2023-04-16T07:02:10;98176.84;;;4.84;100.00
52319;BME280;38258;51.148;14.068;2023-04-16T07:04:37;98318.22;;;6.19;100.00
52319;BME280;38258;51.148;14.068;2023-04-16T07:07:06;98281.44;;;5.75;100.00
52319;BME280;38258;51.148;14.068;2023-04-16T07:09:33;98226.09;;;5.74;100.00
52319;BME280;38258;51.148;14.068;2023-04-16T07:12:00;98253.38;;;6.11;100.00
52319;BME280;38258;51.148;14.068;2023-04-16T07:14:27;98321.63;;;6.24;100.00
52319;BME280;38258;51.148;14.068;2023-04-16T07:17:19;98155.63;;;5.33;100.00
52319;BME280;38258;51.148;14.068;2023-04-16T07:20:02;98329.00;;;6.57;100.00
52319;BME280;38258;51.148;14.068;2023-04-16T07:22:42;98315.44;;;6.34;100.00
52319;BME280;38258;51.148;14.068;2023-04-16T07:25:24;98160.38;;;5.71;100.00
52319;BME280;38258;51.148;14.068;2023-04-16T07:28:12;98160.03;;;5.99;100.00
52319;BME280;38258;51.148;14.068;2023-04-16T07:31:06;98277.09;;;6.50;100.00
52319;BME280;38258;51.148;14.068;2023-04-16T07:34:47;98335.19;;;7.11;100.00
52319;BME280;38258;51.148;14.068;2023-04-16T07:40:43;98218.31;;;7.01;100.00
52319;BME280;38258;51.148;14.068;2023-04-16T07:43:59;98172.47;;;6.94;100.00
52319;BME280;38258;51.148;14.068;2023-04-16T07:47:23;98214.00;;;7.00;100.00
52319;BME280;38258;51.148;14.068;2023-04-16T07:50:29;98247.34;;;7.28;100.00
52319;BME280;38258;51.148;14.068;2023-04-16T07:53:38;98264.81;;;7.20;100.00
52319;BME280;38258;51.148;14.068;2023-04-16T07:56:19;98282.19;;;7.68;100.00
52319;BME280;38258;51.148;14.068;2023-04-16T07:59:05;98217.03;;;7.73;100.00
52319;BME280;38258;51.148;14.068;2023-04-16T08:03:24;98227.16;;;7.87;100.00
52319;BME280;38258;51.148;14.068;2023-04-16T08:05:03;98195.97;;;7.84;100.00
52319;BME280;38258;51.148;14.068;2023-04-16T08:08:00;98291.28;;;8.37;100.00
52319;BME280;38258;51.148;14.068;2023-04-16T08:10:54;98198.31;;;7.96;100.00
52319;BME280;38258;51.148;14.068;2023-04-16T08:13:30;98195.53;;;8.05;100.00
52319;BME280;38258;51.148;14.068;2023-04-16T08:16:05;98303.50;;;9.15;100.00
52319;BME280;38258;51.148;14.068;2023-04-16T08:18:37;98212.09;;;8.82;100.00
52319;BME280;38258;51.148;14.068;2023-04-16T08:24:48;98354.56;;;10.61;100.00
52319;BME280;38258;51.148;14.068;2023-04-16T08:27:15;98360.47;;;10.04;100.00
52319;BME280;38258;51.148;14.068;2023-04-16T08:29:42;98362.03;;;10.10;100.00
52319;BME280;38258;51.148;14.068;2023-04-16T08:32:09;98361.06;;;10.14;100.00
52319;BME280;38258;51.148;14.068;2023-04-16T08:34:36;98364.88;;;10.34;100.00
52319;BME280;38258;51.148;14.068;2023-04-16T08:37:02;98382.38;;;9.64;100.00
52319;BME280;38258;51.148;14.068;2023-04-16T08:39:29;98385.69;;;9.71;100.00
52319;BME280;38258;51.148;14.068;2023-04-16T08:41:58;98383.56;;;9.51;100.00
52319;BME280;38258;51.148;14.068;2023-04-16T08:44:30;98398.06;;;9.26;100.00
52319;BME280;38258;51.148;14.068;2023-04-16T08:46:58;98395.47;;;9.97;100.00
52319;BME280;38258;51.148;14.068;2023-04-16T08:49:27;98390.03;;;10.07;100.00
52319;BME280;38258;51.148;14.068;2023-04-16T08:51:54;98389.03;;;10.44;100.00
52319;BME280;38258;51.148;14.068;2023-04-16T08:54:33;98396.88;;;10.75;100.00
52319;BME280;38258;51.148;14.068;2023-04-16T08:57:06;98397.59;;;9.83;100.00
52319;BME280;38258;51.148;14.068;2023-04-16T08:59:37;98408.91;;;9.83;100.00
52319;BME280;38258;51.148;14.068;2023-04-16T09:02:04;98399.50;;;10.44;100.00
52319;BME280;38258;51.148;14.068;2023-04-16T09:04:31;98402.00;;;10.80;100.00
52319;BME280;38258;51.148;14.068;2023-04-16T09:07:00;98395.97;;;10.77;100.00
52319;BME280;38258;51.148;14.068;2023-04-16T09:09:28;98398.59;;;10.45;100.00
52319;BME280;38258;51.148;14.068;2023-04-16T09:11:56;98400.63;;;10.67;100.00
52319;BME280;38258;51.148;14.068;2023-04-16T09:14:24;98401.75;;;10.58;100.00
52319;BME280;38258;51.148;14.068;2023-04-16T09:16:52;98405.38;;;10.84;100.00
52319;BME280;38258;51.148;14.068;2023-04-16T09:19:19;98416.56;;;10.89;100.00
52319;BME280;38258;51.148;14.068;2023-04-16T10:02:40;98434.16;;;12.50;100.00
52319;BME280;38258;51.148;14.068;2023-04-16T10:05:07;98378.81;;;12.56;100.00
52319;BME280;38258;51.148;14.068;2023-04-16T10:07:35;98411.97;;;12.59;100.00
52319;BME280;38258;51.148;14.068;2023-04-16T10:10:03;98365.38;;;12.66;100.00
52319;BME280;38258;51.148;14.068;2023-04-16T10:12:30;98330.59;;;12.83;100.00
52319;BME280;38258;51.148;14.068;2023-04-16T10:14:58;98345.41;;;11.33;100.00
52319;BME280;38258;51.148;14.068;2023-04-16T10:17:25;98392.13;;;11.47;100.00
52319;BME280;38258;51.148;14.068;2023-04-16T10:19:59;98418.13;;;12.58;100.00
52319;BME280;38258;51.148;14.068;2023-04-16T10:22:29;98362.69;;;11.66;100.00
52319;BME280;38258;51.148;14.068;2023-04-16T10:24:57;98275.34;;;10.86;100.00
52319;BME280;38258;51.148;14.068;2023-04-16T10:27:25;98381.28;;;11.85;100.00
52319;BME280;38258;51.148;14.068;2023-04-16T10:29:53;98352.25;;;11.91;100.00
52319;BME280;38258;51.148;14.068;2023-04-16T10:32:21;98420.56;;;11.58;100.00
52319;BME280;38258;51.148;14.068;2023-04-16T10:34:54;98307.88;;;11.06;100.00
52319;BME280;38258;51.148;14.068;2023-04-16T10:37:29;98442.88;;;11.98;100.00
52319;BME280;38258;51.148;14.068;2023-04-16T10:39:58;98370.59;;;11.09;100.00
52319;BME280;38258;51.148;14.068;2023-04-16T10:42:25;98387.03;;;12.47;100.00
52319;BME280;38258;51.148;14.068;2023-04-16T10:44:53;98443.47;;;12.83;100.00
52319;BME280;38258;51.148;14.068;2023-04-16T10:47:23;98327.66;;;11.70;100.00
52319;BME280;38258;51.148;14.068;2023-04-16T10:49:50;98415.22;;;11.34;100.00
52319;BME280;38258;51.148;14.068;2023-04-16T10:52:18;98439.75;;;12.39;100.00
52319;BME280;38258;51.148;14.068;2023-04-16T10:54:51;98450.47;;;12.84;100.00
52319;BME280;38258;51.148;14.068;2023-04-16T10:57:20;98413.63;;;12.85;100.00
52319;BME280;38258;51.148;14.068;2023-04-16T10:59:47;98434.34;;;12.93;100.00
52319;BME280;38258;51.148;14.068;2023-04-16T11:02:16;98438.38;;;11.75;100.00
52319;BME280;38258;51.148;14.068;2023-04-16T11:04:43;98413.72;;;11.54;100.00
52319;BME280;38258;51.148;14.068;2023-04-16T11:07:17;98376.44;;;11.72;100.00
52319;BME280;38258;51.148;14.068;2023-04-16T11:12:24;98405.56;;;12.42;100.00
52319;BME280;38258;51.148;14.068;2023-04-16T11:14:58;98363.44;;;12.95;98.56
52319;BME280;38258;51.148;14.068;2023-04-16T11:17:28;98396.19;;;11.83;97.90
52319;BME280;38258;51.148;14.068;2023-04-16T11:19:55;98424.44;;;12.01;96.34
52319;BME280;38258;51.148;14.068;2023-04-16T11:22:23;98380.75;;;12.00;96.10
52319;BME280;38258;51.148;14.068;2023-04-16T11:24:53;98446.94;;;12.09;93.60
52319;BME280;38258;51.148;14.068;2023-04-16T11:27:21;98280.44;;;11.17;94.46
52319;BME280;38258;51.148;14.068;2023-04-16T11:29:57;98413.63;;;11.84;89.77
52319;BME280;38258;51.148;14.068;2023-04-16T11:32:24;98402.06;;;11.36;95.97
52319;BME280;38258;51.148;14.068;2023-04-16T11:34:51;98389.31;;;12.07;92.83
52319;BME280;38258;51.148;14.068;2023-04-16T11:37:19;98462.78;;;12.56;90.82
52319;BME280;38258;51.148;14.068;2023-04-16T11:39:51;98458.69;;;12.73;90.20
52319;BME280;38258;51.148;14.068;2023-04-16T11:42:19;98470.81;;;13.01;86.56
52319;BME280;38258;51.148;14.068;2023-04-16T11:44:50;98465.72;;;12.72;90.47
52319;BME280;38258;51.148;14.068;2023-04-16T11:47:20;98345.53;;;12.09;86.72
52319;BME280;38258;51.148;14.068;2023-04-16T11:49:47;98400.41;;;12.65;94.88
52319;BME280;38258;51.148;14.068;2023-04-16T11:52:24;98416.69;;;12.24;100.00
52319;BME280;38258;51.148;14.068;2023-04-16T11:54:52;98474.88;;;12.35;100.00
52319;BME280;38258;51.148;14.068;2023-04-16T11:57:24;98413.28;;;11.95;100.00
52319;BME280;38258;51.148;14.068;2023-04-16T11:59:51;98414.84;;;11.73;100.00
52319;BME280;38258;51.148;14.068;2023-04-16T12:05:28;98449.06;;;12.23;100.00
52319;BME280;38258;51.148;14.068;2023-04-16T12:07:56;98460.31;;;12.52;100.00
52319;BME280;38258;51.148;14.068;2023-04-16T12:10:23;98457.50;;;12.58;100.00
52319;BME280;38258;51.148;14.068;2023-04-16T12:12:49;98437.72;;;12.73;100.00
52319;BME280;38258;51.148;14.068;2023-04-16T12:15:16;98463.06;;;12.98;100.00
52319;BME280;38258;51.148;14.068;2023-04-16T12:17:43;98454.44;;;12.94;100.00
52319;BME280;38258;51.148;14.068;2023-04-16T12:20:11;98471.06;;;12.69;100.00
52319;BME280;38258;51.148;14.068;2023-04-16T12:22:43;98465.56;;;13.25;100.00
52319;BME280;38258;51.148;14.068;2023-04-16T12:25:11;98467.34;;;13.00;100.00
52319;BME280;38258;51.148;14.068;2023-04-16T12:27:46;98468.50;;;13.17;98.04
52319;BME280;38258;51.148;14.068;2023-04-16T12:30:15;98470.22;;;12.69;97.88
52319;BME280;38258;51.148;14.068;2023-04-16T12:32:44;98466.59;;;12.48;96.11
52319;BME280;38258;51.148;14.068;2023-04-16T12:35:11;98473.28;;;13.29;99.15
52319;BME280;38258;51.148;14.068;2023-04-16T12:37:40;98464.94;;;12.45;94.17
52319;BME280;38258;51.148;14.068;2023-04-16T12:40:07;98465.63;;;13.23;91.29
52319;BME280;38258;51.148;14.068;2023-04-16T12:42:34;98457.63;;;13.50;86.30
52319;BME280;38258;51.148;14.068;2023-04-16T12:45:01;98463.09;;;12.96;93.36
52319;BME280;38258;51.148;14.068;2023-04-16T12:47:28;98459.78;;;13.39;88.43
52319;BME280;38258;51.148;14.068;2023-04-16T12:49:55;98460.38;;;13.47;90.09
52319;BME280;38258;51.148;14.068;2023-04-16T12:52:22;98470.50;;;12.36;88.69
52319;BME280;38258;51.148;14.068;2023-04-16T12:54:51;98462.16;;;12.50;90.00
52319;BME280;38258;51.148;14.068;2023-04-16T12:57:17;98464.00;;;12.46;100.00
52319;BME280;38258;51.148;14.068;2023-04-16T12:59:45;98471.78;;;11.68;100.00
52319;BME280;38258;51.148;14.068;2023-04-16T13:02:11;98477.44;;;11.54;100.00
52319;BME280;38258;51.148;14.068;2023-04-16T13:04:38;98478.72;;;11.11;100.00
52319;BME280;38258;51.148;14.068;2023-04-16T13:07:05;98473.53;;;11.39;100.00
52319;BME280;38258;51.148;14.068;2023-04-16T13:09:32;98458.03;;;12.42;100.00
52319;BME280;38258;51.148;14.068;2023-04-16T13:12:00;98459.31;;;12.04;100.00
52319;BME280;38258;51.148;14.068;2023-04-16T13:14:27;98477.06;;;11.67;100.00
52319;BME280;38258;51.148;14.068;2023-04-16T13:16:53;98452.59;;;12.22;100.00
52319;BME280;38258;51.148;14.068;2023-04-16T13:19:20;98467.41;;;11.96;100.00
52319;BME280;38258;51.148;14.068;2023-04-16T13:21:47;98479.53;;;11.71;100.00
52319;BME280;38258;51.148;14.068;2023-04-16T13:24:13;98475.78;;;12.09;100.00
52319;BME280;38258;51.148;14.068;2023-04-16T13:26:40;98474.28;;;12.00;100.00
52319;BME280;38258;51.148;14.068;2023-04-16T13:29:09;98473.16;;;12.34;100.00
52319;BME280;38258;51.148;14.068;2023-04-16T13:31:35;98474.75;;;12.13;100.00
52319;BME280;38258;51.148;14.068;2023-04-16T13:34:02;98487.72;;;11.89;100.00
52319;BME280;38258;51.148;14.068;2023-04-16T13:36:29;98475.97;;;12.02;100.00
52319;BME280;38258;51.148;14.068;2023-04-16T13:38:56;98488.47;;;12.21;100.00
52319;BME280;38258;51.148;14.068;2023-04-16T13:41:23;98491.53;;;12.34;100.00
52319;BME280;38258;51.148;14.068;2023-04-16T13:43:50;98487.72;;;11.89;100.00
52319;BME280;38258;51.148;14.068;2023-04-16T13:46:18;98492.22;;;11.85;100.00
52319;BME280;38258;51.148;14.068;2023-04-16T13:48:45;98482.38;;;11.65;100.00
52319;BME280;38258;51.148;14.068;2023-04-16T13:51:11;98491.38;;;11.83;100.00